Time;durP1;ratioP1;P1;durP2;ratioP2;P2;SDS_P1;SDS_P2;PMS_P1;PMS_P2;Temp;Humidity;BMP_temperature;BMP_pressure;BME280_temperature;BME280_humidity;BME280_pressure;Samples;Min_cycle;Max_cycle;Signal;HPM_P1;HPM_P2
2021/10/23 00:00:00;;;;;;;;;10.00;9.50;;;;;21.02;44.92;101807.78;5070814;28;45367;-82
2021/10/23 00:02:26;;;;;;;;;17.00;11.00;;;;;21.02;45.11;101810.44;5084025;27;45480;-82
2021/10/23 00:04:51;;;;;;;;;15.50;10.00;;;;;20.98;44.65;101803.44;5075381;28;48035;-82
2021/10/23 00:07:17;;;;;;;;;12.75;10.25;;;;;20.96;45.28;101813.22;5075214;28;45251;-81
2021/10/23 00:09:42;;;;;;;;;14.75;10.50;;;;;20.95;45.26;101798.19;5059838;28;45235;-82
2021/10/23 00:12:08;;;;;;;;;18.50;12.25;;;;;20.95;45.09;101803.50;5054994;28;46269;-81
2021/10/23 00:14:33;;;;;;;;;11.00;9.50;;;;;20.92;44.74;101804.41;5053060;28;45492;-81
2021/10/23 00:16:58;;;;;;;;;15.00;12.00;;;;;20.89;45.14;101805.34;5066161;28;49146;-80
2021/10/23 00:19:24;;;;;;;;;15.00;14.00;;;;;20.88;45.18;101808.91;5075026;28;48730;-81
2021/10/23 00:21:49;;;;;;;;;15.25;11.00;;;;;20.86;44.96;101805.41;5041358;28;45565;-81
2021/10/23 00:24:15;;;;;;;;;9.25;9.25;;;;;20.87;45.33;101816.88;5075174;28;47883;-81
2021/10/23 00:26:40;;;;;;;;;14.25;12.25;;;;;20.88;44.91;101810.69;5057573;28;62218;-82
2021/10/23 00:29:05;;;;;;;;;11.00;11.00;;;;;20.86;45.37;101800.09;5059150;28;57398;-82
2021/10/23 00:31:31;;;;;;;;;11.00;10.00;;;;;20.89;44.94;101807.13;5059129;28;57339;-82
2021/10/23 00:33:56;;;;;;;;;10.75;9.00;;;;;20.89;45.16;101815.09;5059323;28;45610;-82
2021/10/23 00:36:22;;;;;;;;;12.00;10.25;;;;;20.89;45.57;101815.09;5059374;28;45425;-82
2021/10/23 00:38:47;;;;;;;;;13.50;12.50;;;;;20.87;45.20;101812.47;5059684;28;45235;-82
2021/10/23 00:41:13;;;;;;;;;8.75;8.50;;;;;20.93;45.17;101813.25;5092159;27;45544;-82
2021/10/23 00:43:40;;;;;;;;;13.50;11.25;;;;;20.92;44.89;101819.44;5057530;28;62422;-82
2021/10/23 00:46:05;;;;;;;;;15.50;12.75;;;;;20.92;44.99;101814.16;5058458;28;45949;-82
2021/10/23 00:48:31;;;;;;;;;12.00;10.50;;;;;20.92;45.06;101815.03;5058168;28;45204;-82
2021/10/23 00:50:56;;;;;;;;;7.75;7.75;;;;;20.89;45.13;101805.34;5041353;28;45451;-82
2021/10/23 00:53:22;;;;;;;;;12.25;12.00;;;;;20.94;44.98;101815.00;5073701;28;65076;-83
2021/10/23 00:55:48;;;;;;;;;10.50;9.25;;;;;20.92;45.14;101808.84;5084689;27;45402;-82
2021/10/23 00:58:13;;;;;;;;;10.75;10.75;;;;;20.92;44.89;101815.03;5058073;28;45364;-82
2021/10/23 01:00:39;;;;;;;;;14.00;11.00;;;;;20.92;44.55;101815.03;5075279;28;45418;-82
2021/10/23 01:03:05;;;;;;;;;16.00;8.50;;;;;20.90;44.52;101808.88;5061179;28;47167;-82
2021/10/23 01:05:30;;;;;;;;;12.25;10.25;;;;;20.88;44.85;101808.91;5078392;28;45418;-82
2021/10/23 01:07:55;;;;;;;;;15.75;12.00;;;;;20.88;44.90;101814.22;5094788;27;51199;-82
2021/10/23 01:10:21;;;;;;;;;14.00;11.00;;;;;20.85;44.56;101803.66;5078235;28;45796;-82
2021/10/23 01:12:46;;;;;;;;;11.75;10.00;;;;;20.85;44.93;101808.09;5061048;28;46877;-82
2021/10/23 01:15:29;;;;;;;;;9.00;8.00;;;;;20.84;44.68;101809.84;5044498;28;45334;-82
2021/10/23 01:17:55;;;;;;;;;9.50;9.00;;;;;20.82;44.96;101809.00;5060906;28;45430;-83
2021/10/23 01:20:21;;;;;;;;;14.50;11.25;;;;;20.84;44.89;101814.25;5061320;28;45445;-82
2021/10/23 01:22:47;;;;;;;;;10.25;10.00;;;;;20.81;44.83;101804.59;5024084;28;47999;-82
2021/10/23 01:25:13;;;;;;;;;13.75;11.25;;;;;20.83;45.08;101805.44;5074471;27;45231;-82
2021/10/23 01:27:39;;;;;;;;;14.50;12.75;;;;;20.82;45.18;101801.03;5060959;28;45413;-82
2021/10/23 01:30:05;;;;;;;;;12.25;10.00;;;;;20.83;44.95;101797.47;5061236;28;45425;-82
2021/10/23 01:32:31;;;;;;;;;10.75;10.75;;;;;20.79;44.85;101789.59;5060813;28;46384;-82
2021/10/23 01:34:56;;;;;;;;;14.25;14.25;;;;;20.82;44.98;101797.50;5062097;28;45315;-82
2021/10/23 01:37:29;;;;;;;;;14.50;13.50;;;;;20.81;45.17;101791.31;5062230;28;45554;-82
2021/10/23 01:39:54;;;;;;;;;12.25;10.50;;;;;20.80;45.15;101788.69;5059814;28;45826;-82
2021/10/23 01:42:19;;;;;;;;;15.75;11.75;;;;;20.80;44.85;101799.31;5060098;28;64324;-82
2021/10/23 01:44:45;;;;;;;;;14.50;12.00;;;;;20.81;45.41;101788.66;5076977;28;67133;-82
2021/10/23 01:47:10;;;;;;;;;11.25;9.00;;;;;20.82;44.92;101792.19;5043492;28;56377;-82
2021/10/23 01:49:36;;;;;;;;;12.75;11.75;;;;;20.80;44.67;101788.69;5057328;28;45773;-82
2021/10/23 01:52:01;;;;;;;;;9.50;9.00;;;;;20.80;44.86;101789.56;5055759;28;46973;-82
2021/10/23 01:54:27;;;;;;;;;18.00;14.00;;;;;20.81;44.76;101788.66;5049304;28;45153;-83
2021/10/23 01:56:52;;;;;;;;;9.75;9.00;;;;;20.83;44.82;101789.50;5040671;28;45372;-82
2021/10/23 01:59:18;;;;;;;;;9.50;9.50;;;;;20.80;44.42;101778.97;5052878;28;45716;-82
2021/10/23 02:01:43;;;;;;;;;9.50;8.75;;;;;20.83;44.81;101781.56;5074067;27;68629;-82
2021/10/23 02:04:09;;;;;;;;;15.50;9.75;;;;;20.81;44.61;101775.41;5052267;28;59499;-82
2021/10/23 02:06:34;;;;;;;;;11.50;7.75;;;;;20.80;44.37;101778.97;5093913;27;45456;-82
2021/10/23 02:09:00;;;;;;;;;11.00;9.75;;;;;20.83;44.63;101781.56;5077294;28;45513;-82
2021/10/23 02:11:26;;;;;;;;;14.50;11.00;;;;;20.78;44.80;101775.47;5060061;28;47442;-83
2021/10/23 02:13:51;;;;;;;;;11.00;11.00;;;;;20.77;44.62;101759.56;5060017;28;47968;-82
2021/10/23 02:16:17;;;;;;;;;5.25;2.25;;;;;20.81;45.02;101764.78;5077354;27;45859;-82
2021/10/23 02:18:42;;;;;;;;;12.50;10.25;;;;;20.83;45.00;101768.28;5060197;28;45875;-82
2021/10/23 02:21:09;;;;;;;;;10.75;9.25;;;;;20.83;44.93;101757.66;5043245;28;47110;-80
2021/10/23 02:23:35;;;;;;;;;14.75;12.75;;;;;20.83;45.05;101768.28;5077091;28;46160;-80
2021/10/23 02:26:01;;;;;;;;;12.50;12.50;;;;;20.83;45.17;101759.44;5077065;28;45432;-80
2021/10/23 02:28:26;;;;;;;;;15.00;12.25;;;;;20.85;44.97;101761.19;5059999;28;45428;-79
2021/10/23 02:30:51;;;;;;;;;11.00;8.50;;;;;20.84;44.87;101759.41;5059725;28;51492;-79
2021/10/23 02:33:17;;;;;;;;;17.25;10.25;;;;;20.81;44.64;101754.16;5059998;28;45413;-79
2021/10/23 02:35:42;;;;;;;;;10.25;10.25;;;;;20.79;44.89;101750.69;5056610;28;45513;-79
2021/10/23 02:38:10;;;;;;;;;11.50;11.00;;;;;20.80;44.77;101754.19;5082230;27;45417;-79
2021/10/23 02:40:36;;;;;;;;;10.00;8.25;;;;;20.77;45.10;101752.50;5072920;28;48213;-79
2021/10/23 02:43:01;;;;;;;;;10.25;9.75;;;;;20.77;45.23;101757.78;5056710;28;45307;-81
2021/10/23 02:45:26;;;;;;;;;10.00;8.50;;;;;20.76;44.56;101753.41;5059722;28;45295;-79
2021/10/23 02:47:52;;;;;;;;;10.75;10.50;;;;;20.73;44.78;101755.19;5059192;28;58747;-79
2021/10/23 02:50:17;;;;;;;;;12.75;8.75;;;;;20.74;44.60;101760.47;5058983;28;65189;-80
2021/10/23 02:52:43;;;;;;;;;12.50;11.00;;;;;20.71;45.07;101764.97;5060816;28;45429;-79
2021/10/23 02:55:08;;;;;;;;;11.00;9.00;;;;;20.72;44.98;101759.63;5060664;28;53000;-80
2021/10/23 02:57:33;;;;;;;;;13.00;11.50;;;;;20.75;44.50;101771.97;5076644;28;45417;-79
2021/10/23 02:59:59;;;;;;;;;9.50;8.50;;;;;20.73;44.83;101769.34;5076051;28;53890;-80
2021/10/23 03:02:24;;;;;;;;;10.50;10.50;;;;;20.75;44.49;101772.84;5042148;28;63033;-80
2021/10/23 03:04:50;;;;;;;;;9.25;8.75;;;;;20.74;44.97;101773.75;5093531;27;45302;-80
2021/10/23 03:07:15;;;;;;;;;12.50;11.00;;;;;20.75;44.88;101775.50;5076233;28;45303;-80
2021/10/23 03:09:40;;;;;;;;;10.00;9.00;;;;;20.77;45.10;101773.72;5042650;28;49125;-80
2021/10/23 03:12:06;;;;;;;;;11.75;11.00;;;;;20.76;45.24;101774.63;5059400;28;45322;-80
2021/10/23 03:14:31;;;;;;;;;12.00;8.50;;;;;20.75;44.97;101770.19;5076366;28;45238;-80
2021/10/23 03:16:57;;;;;;;;;12.75;10.75;;;;;20.76;45.16;101769.31;5059049;28;55395;-80
2021/10/23 03:19:22;;;;;;;;;10.75;10.00;;;;;20.78;44.90;101769.28;5075453;27;63295;-80
2021/10/23 03:21:47;;;;;;;;;9.50;8.75;;;;;20.78;44.65;101775.47;5075673;28;57978;-80
2021/10/23 03:24:13;;;;;;;;;9.50;9.50;;;;;20.77;44.93;101772.84;5075811;28;45579;-82
2021/10/23 03:26:38;;;;;;;;;14.50;9.25;;;;;20.77;44.96;101773.72;5082748;27;45350;-82
2021/10/23 03:29:04;;;;;;;;;11.00;9.75;;;;;20.75;44.90;101769.31;5055529;28;58959;-82
2021/10/23 03:31:30;;;;;;;;;11.75;9.75;;;;;20.73;44.88;101768.47;5055759;28;45650;-82
2021/10/23 03:33:55;;;;;;;;;11.25;10.50;;;;;20.69;44.85;101769.44;5057076;28;45341;-82
2021/10/23 03:36:21;;;;;;;;;11.25;11.25;;;;;20.71;44.69;101770.28;5065781;28;48392;-82
2021/10/23 03:38:46;;;;;;;;;11.50;9.50;;;;;20.63;44.49;101765.09;5056017;28;56795;-82
2021/10/23 03:41:12;;;;;;;;;9.00;7.25;;;;;20.68;45.08;101768.56;5058945;28;46130;-82
2021/10/23 03:43:37;;;;;;;;;9.75;7.00;;;;;20.68;44.92;101770.34;5041839;28;51009;-82
2021/10/23 03:46:03;;;;;;;;;10.00;8.25;;;;;20.62;44.73;101763.34;5025431;28;52071;-82
2021/10/23 03:48:28;;;;;;;;;11.50;9.25;;;;;20.61;45.23;101761.59;5041880;28;47413;-82
2021/10/23 03:50:54;;;;;;;;;10.00;9.00;;;;;20.63;45.30;101764.22;5042119;28;45239;-83
2021/10/23 03:53:19;;;;;;;;;7.50;7.00;;;;;20.63;45.19;101767.75;5041385;28;50530;-82
2021/10/23 03:55:45;;;;;;;;;9.25;9.00;;;;;20.64;45.03;101768.63;5075450;28;46107;-82
2021/10/23 03:58:10;;;;;;;;;10.00;9.00;;;;;20.65;45.19;101765.06;5074881;27;62965;-82
2021/10/23 04:00:36;;;;;;;;;10.50;9.25;;;;;20.65;45.34;101762.41;5075721;28;45262;-82
2021/10/23 04:03:02;;;;;;;;;9.00;7.75;;;;;20.65;45.29;101759.75;5075263;28;45352;-82
2021/10/23 04:05:27;;;;;;;;;8.50;7.25;;;;;20.62;45.16;101758.03;5075529;28;45239;-82
2021/10/23 04:07:53;;;;;;;;;12.75;9.25;;;;;20.61;45.70;101758.94;5091933;27;51553;-83
2021/10/23 04:10:19;;;;;;;;;10.25;9.50;;;;;20.61;45.32;101758.94;5075487;28;45406;-83
2021/10/23 04:12:44;;;;;;;;;9.50;9.00;;;;;20.60;45.06;101757.19;5041676;28;45371;-83
2021/10/23 04:15:10;;;;;;;;;11.75;10.25;;;;;20.62;45.53;101759.81;5075493;28;45468;-83
2021/10/23 04:17:35;;;;;;;;;9.25;6.00;;;;;20.60;45.33;101760.72;5058048;28;47815;-83
2021/10/23 04:20:00;;;;;;;;;11.00;10.00;;;;;20.61;45.69;101756.28;5074994;28;62446;-83
2021/10/23 04:22:26;;;;;;;;;7.75;7.50;;;;;20.62;45.17;101760.69;5040318;28;53580;-83
2021/10/23 04:24:51;;;;;;;;;8.25;8.25;;;;;20.61;45.00;101756.28;5075065;28;54309;-83
2021/10/23 04:27:17;;;;;;;;;6.50;6.00;;;;;20.61;45.04;101753.63;5092074;27;45352;-84
2021/10/23 04:29:43;;;;;;;;;9.50;9.00;;;;;20.61;45.09;101753.63;5058328;28;46077;-83
2021/10/23 04:32:09;;;;;;;;;7.00;6.75;;;;;20.60;45.20;101752.75;5092049;27;52983;-83
2021/10/23 04:34:36;;;;;;;;;14.00;8.50;;;;;20.61;45.23;101751.00;5065605;28;45542;-84
2021/10/23 04:37:04;;;;;;;;;9.50;7.25;;;;;20.62;45.11;101759.81;5060115;28;47294;-84
2021/10/23 04:39:29;;;;;;;;;10.50;8.00;;;;;20.62;45.19;101757.16;5045455;28;45569;-84
2021/10/23 04:41:55;;;;;;;;;8.25;8.00;;;;;20.62;44.96;101757.16;5044827;28;45378;-82
2021/10/23 04:44:21;;;;;;;;;9.25;8.50;;;;;20.60;45.22;101749.25;5045009;28;45489;-83
2021/10/23 04:46:46;;;;;;;;;8.75;8.75;;;;;20.62;44.97;101763.34;5028187;28;47083;-83
2021/10/23 04:49:12;;;;;;;;;7.75;7.75;;;;;20.61;45.26;101761.59;5028355;28;45538;-84
2021/10/23 04:51:40;;;;;;;;;7.50;6.25;;;;;20.60;45.08;101766.03;5044920;28;45340;-84
2021/10/23 04:54:06;;;;;;;;;10.25;8.75;;;;;20.55;45.23;101762.56;5044731;28;45462;-84
2021/10/23 04:56:31;;;;;;;;;8.75;8.00;;;;;20.57;45.11;101760.75;5065285;28;47285;-84
2021/10/23 04:58:57;;;;;;;;;9.00;8.00;;;;;20.58;45.55;101757.19;5062429;28;45290;-82
2021/10/23 05:01:22;;;;;;;;;10.00;8.25;;;;;20.60;45.54;101765.16;5062040;28;45362;-83
2021/10/23 05:03:48;;;;;;;;;8.50;7.75;;;;;20.57;45.32;101758.09;5096184;27;45176;-84
2021/10/23 05:06:14;;;;;;;;;7.50;7.00;;;;;20.58;45.40;101765.16;5095605;27;48413;-83
2021/10/23 05:08:41;;;;;;;;;11.00;7.50;;;;;20.58;45.26;101765.16;5062700;28;45343;-83
2021/10/23 05:11:06;;;;;;;;;10.00;8.50;;;;;20.55;45.11;101765.22;5062626;28;45427;-84
2021/10/23 05:13:32;;;;;;;;;8.00;7.25;;;;;20.56;45.16;101768.72;5061553;28;45318;-84
2021/10/23 05:15:58;;;;;;;;;10.25;7.50;;;;;20.57;45.40;101767.84;5077718;28;45926;-84
2021/10/23 05:18:23;;;;;;;;;8.50;7.50;;;;;20.56;45.88;101774.03;5078330;28;47440;-85
2021/10/23 05:20:49;;;;;;;;;8.00;8.00;;;;;20.54;44.83;101776.72;5044239;28;45418;-82
2021/10/23 05:23:14;;;;;;;;;7.25;6.75;;;;;20.55;45.16;101774.94;5077532;28;55034;-83
2021/10/23 05:25:39;;;;;;;;;7.50;7.25;;;;;20.56;45.33;101779.34;5060663;28;46879;-84
2021/10/23 05:28:05;;;;;;;;;6.50;6.50;;;;;20.53;45.08;101780.28;5078014;28;45226;-84
2021/10/23 05:30:31;;;;;;;;;6.00;6.00;;;;;20.49;45.13;101773.25;5060809;28;45306;-83
2021/10/23 05:32:56;;;;;;;;;8.50;7.75;;;;;20.50;45.23;101779.44;5060915;28;45245;-84
2021/10/23 05:35:21;;;;;;;;;5.25;5.25;;;;;20.51;45.13;101783.88;5063052;28;62775;-84
2021/10/23 05:37:49;;;;;;;;;10.00;7.50;;;;;20.52;45.09;101775.88;5044134;28;45325;-83
2021/10/23 05:40:15;;;;;;;;;8.00;7.50;;;;;20.53;45.33;101772.31;5062140;27;45427;-84
2021/10/23 05:42:40;;;;;;;;;9.50;6.25;;;;;20.54;45.35;101775.84;5077875;28;45618;-85
2021/10/23 05:45:06;;;;;;;;;8.75;7.25;;;;;20.59;45.56;101776.66;5043834;28;48240;-84
2021/10/23 05:47:31;;;;;;;;;7.50;6.50;;;;;20.58;45.37;101772.22;5043608;28;45507;-84
2021/10/23 05:49:57;;;;;;;;;7.50;6.50;;;;;20.60;45.53;101775.75;5043947;28;45406;-86
2021/10/23 05:52:22;;;;;;;;;8.25;6.50;;;;;20.62;45.30;101784.56;5026803;28;55839;-84
2021/10/23 05:54:48;;;;;;;;;5.50;5.25;;;;;20.60;45.41;101773.09;5060245;28;47130;-84
2021/10/23 05:57:13;;;;;;;;;7.00;7.00;;;;;20.62;45.16;101781.91;5061161;28;45323;-84
2021/10/23 05:59:44;;;;;;;;;7.50;6.00;;;;;20.62;45.49;101781.03;5060578;28;56090;-84
2021/10/23 06:02:25;;;;;;;;;6.00;6.00;;;;;20.58;44.97;101780.19;5076790;27;45359;-84
2021/10/23 06:04:52;;;;;;;;;7.00;6.00;;;;;20.57;45.03;101778.44;5042433;28;48280;-84
2021/10/23 06:07:18;;;;;;;;;7.00;7.00;;;;;20.57;45.47;101781.97;5048381;28;45269;-85
2021/10/23 06:09:44;;;;;;;;;7.50;5.25;;;;;20.60;45.31;101789.03;5055056;28;45379;-83
2021/10/23 06:12:09;;;;;;;;;6.00;6.00;;;;;20.62;45.39;101789.88;5068542;28;45444;-83
2021/10/23 06:14:35;;;;;;;;;4.75;4.00;;;;;20.62;45.20;101789.88;5077219;28;47332;-84
2021/10/23 06:17:05;;;;;;;;;6.75;6.75;;;;;20.63;46.19;101790.75;5061564;28;45348;-84
2021/10/23 06:19:31;;;;;;;;;7.00;6.25;;;;;20.69;46.81;101785.34;5078823;27;45408;-76
2021/10/23 06:21:56;;;;;;;;;7.25;6.00;;;;;20.89;47.61;101800.03;5082216;27;45459;-74
2021/10/23 06:24:22;;;;;;;;;6.00;6.00;;;;;21.10;49.72;101800.56;5056817;28;45347;-74
2021/10/23 06:26:47;;;;;;;;;7.50;5.50;;;;;21.26;50.14;101790.53;5056140;28;45213;-70
2021/10/23 06:29:13;;;;;;;;;8.25;6.50;;;;;21.48;49.68;101805.22;5056481;28;50060;-73
2021/10/23 06:31:38;;;;;;;;;7.75;5.75;;;;;21.63;49.19;101804.94;5053207;28;45466;-72
2021/10/23 06:34:03;;;;;;;;;5.75;5.75;;;;;21.76;48.25;101804.69;5042315;28;60887;-71
2021/10/23 06:36:29;;;;;;;;;6.50;6.50;;;;;21.89;47.88;101808.81;5076710;28;45369;-71
2021/10/23 06:38:54;;;;;;;;;8.00;7.00;;;;;21.97;46.95;101801.56;5093668;27;50383;-72
2021/10/23 06:41:37;;;;;;;;;6.50;5.75;;;;;22.07;46.27;101810.25;5076451;28;51474;-76
2021/10/23 06:44:07;;;;;;;;;6.25;5.00;;;;;22.14;45.69;101809.22;5086723;27;45252;-77
2021/10/23 06:46:36;;;;;;;;;5.75;5.50;;;;;22.18;45.43;101813.59;5060927;27;45387;-76
2021/10/23 06:49:02;;;;;;;;;9.50;7.25;;;;;22.18;43.69;101818.91;5044446;28;45528;-73
2021/10/23 06:51:28;;;;;;;;;5.25;5.00;;;;;22.08;44.11;101820.00;5059547;28;45324;-76
2021/10/23 06:53:55;;;;;;;;;5.75;5.00;;;;;22.07;43.74;101824.44;5042682;28;45226;-76
2021/10/23 06:56:20;;;;;;;;;6.00;6.00;;;;;22.02;42.80;101821.84;5076053;28;45403;-77
2021/10/23 06:58:45;;;;;;;;;6.50;6.50;;;;;21.88;42.37;101831.00;5075709;28;50084;-75
2021/10/23 07:01:11;;;;;;;;;6.00;6.00;;;;;21.71;42.39;101839.31;5076459;28;45414;-74
2021/10/23 07:03:36;;;;;;;;;5.75;5.00;;;;;21.57;41.94;101842.25;5059426;28;47366;-74
2021/10/23 07:06:02;;;;;;;;;7.00;5.50;;;;;21.48;42.09;101841.53;5092680;27;57020;-73
2021/10/23 07:08:27;;;;;;;;;6.25;5.75;;;;;21.38;42.12;101844.38;5093817;27;45711;-72
2021/10/23 07:10:52;;;;;;;;;6.50;5.25;;;;;21.31;42.25;101849.81;5092974;27;51358;-72
2021/10/23 07:13:22;;;;;;;;;6.00;6.00;;;;;21.24;42.67;101854.31;5042277;28;63679;-73
2021/10/23 07:15:47;;;;;;;;;6.75;5.00;;;;;21.20;43.13;101849.97;5076118;28;45293;-73
2021/10/23 07:18:12;;;;;;;;;5.50;5.50;;;;;21.17;43.92;101852.66;5060407;28;51122;-73
2021/10/23 07:20:38;;;;;;;;;6.50;6.50;;;;;21.15;44.33;101860.66;5060394;28;50499;-70
2021/10/23 07:23:03;;;;;;;;;15.00;8.00;;;;;21.11;44.88;101866.94;5059104;28;46802;-71
2021/10/23 07:25:29;;;;;;;;;17.75;10.00;;;;;21.13;45.20;101864.25;5059123;28;45414;-71
2021/10/23 07:27:54;;;;;;;;;12.50;9.25;;;;;21.16;45.37;101861.53;5061637;28;45274;-72
2021/10/23 07:30:20;;;;;;;;;14.25;8.00;;;;;21.15;44.83;101865.09;5076934;28;51717;-70
2021/10/23 07:32:45;;;;;;;;;8.00;8.00;;;;;21.20;44.85;101875.59;5060222;28;46026;-71
2021/10/23 07:35:11;;;;;;;;;7.25;7.00;;;;;21.23;45.32;101881.75;5060057;28;45424;-72
2021/10/23 07:37:36;;;;;;;;;9.00;9.00;;;;;21.29;48.51;101881.69;5059053;28;45436;-71
2021/10/23 07:40:06;;;;;;;;;10.25;8.25;;;;;21.35;46.79;101889.53;5058716;28;45725;-71
2021/10/23 07:42:31;;;;;;;;;6.75;6.00;;;;;21.33;45.96;101887.81;5042765;28;48501;-71
2021/10/23 07:44:58;;;;;;;;;10.25;7.75;;;;;21.29;45.53;101887.00;5059404;28;64860;-71
2021/10/23 07:47:23;;;;;;;;;6.50;5.75;;;;;21.28;45.57;101887.00;5060498;28;45232;-70
2021/10/23 07:49:48;;;;;;;;;8.50;7.00;;;;;21.27;45.49;101896.75;5058646;28;45406;-70
2021/10/23 07:52:15;;;;;;;;;7.75;6.00;;;;;21.26;45.05;101888.78;5060017;28;45952;-74
2021/10/23 07:54:41;;;;;;;;;8.50;8.00;;;;;21.31;44.89;101894.94;5061468;28;45366;-72
2021/10/23 07:57:07;;;;;;;;;7.00;7.00;;;;;21.28;45.10;101901.16;5075903;28;45393;-71
2021/10/23 07:59:35;;;;;;;;;10.00;8.25;;;;;21.26;44.77;101904.72;5058623;28;45363;-72
2021/10/23 08:02:01;;;;;;;;;9.75;8.75;;;;;21.22;44.71;101913.66;5060244;28;46645;-72
2021/10/23 08:04:27;;;;;;;;;7.00;7.00;;;;;21.18;44.35;101903.06;5058603;28;45278;-72
2021/10/23 08:06:53;;;;;;;;;8.50;7.50;;;;;21.13;44.10;101914.69;5061389;28;45414;-72
2021/10/23 08:09:18;;;;;;;;;9.25;7.50;;;;;21.11;44.49;101913.81;5092427;27;46865;-72
2021/10/23 08:11:44;;;;;;;;;10.25;7.50;;;;;21.07;44.75;101905.03;5079016;27;46072;-71
2021/10/23 08:14:10;;;;;;;;;7.00;7.00;;;;;21.07;44.21;101914.75;5063264;28;45330;-71
2021/10/23 08:16:36;;;;;;;;;9.00;7.75;;;;;21.05;43.93;101919.22;5062377;28;45391;-71
2021/10/23 08:19:02;;;;;;;;;9.50;8.25;;;;;21.04;44.16;101913.03;5045118;28;45544;-71
2021/10/23 08:21:27;;;;;;;;;9.00;7.75;;;;;21.03;44.19;101913.94;5063182;28;45405;-71
2021/10/23 08:23:53;;;;;;;;;6.50;6.50;;;;;20.99;44.15;101895.44;5062013;28;45334;-71
2021/10/23 08:26:18;;;;;;;;;10.00;7.00;;;;;21.03;43.93;101910.41;5045165;28;45320;-71
2021/10/23 08:28:43;;;;;;;;;9.50;7.50;;;;;21.02;44.10;101909.50;5095892;27;45285;-71
2021/10/23 08:31:09;;;;;;;;;9.75;8.75;;;;;21.04;44.01;101904.22;5078889;28;45963;-71
2021/10/23 08:33:34;;;;;;;;;8.25;7.00;;;;;21.01;43.90;101896.28;5095683;27;45354;-71
2021/10/23 08:36:00;;;;;;;;;7.00;7.00;;;;;20.97;44.19;101894.56;5078274;28;51350;-72
2021/10/23 08:38:25;;;;;;;;;8.00;7.25;;;;;21.05;44.19;101905.97;5095497;27;53818;-72
2021/10/23 08:40:54;;;;;;;;;10.00;8.75;;;;;21.01;43.90;101899.78;5062585;28;45301;-72
2021/10/23 08:43:20;;;;;;;;;8.25;8.25;;;;;21.04;44.13;101909.50;5078272;28;45577;-71
2021/10/23 08:45:46;;;;;;;;;10.00;9.00;;;;;21.06;43.82;101913.00;5061534;28;45351;-71
2021/10/23 08:48:11;;;;;;;;;10.25;9.75;;;;;21.06;43.96;101908.59;5078352;28;45333;-71
2021/10/23 08:50:37;;;;;;;;;9.00;8.00;;;;;21.06;44.09;101905.06;5061316;28;46040;-71
2021/10/23 08:53:02;;;;;;;;;12.25;9.00;;;;;21.06;43.70;101913.00;5060713;28;45420;-71
2021/10/23 08:55:28;;;;;;;;;10.00;9.50;;;;;21.02;43.94;101904.19;5060851;28;45351;-71
2021/10/23 08:57:53;;;;;;;;;8.25;7.00;;;;;20.98;43.89;101901.63;5044338;28;45381;-71
2021/10/23 09:00:19;;;;;;;;;7.50;7.50;;;;;21.02;43.57;101912.16;5078197;28;54534;-72
2021/10/23 09:02:45;;;;;;;;;9.25;7.00;;;;;20.99;43.89;101906.03;5057709;28;55338;-72
2021/10/23 09:05:10;;;;;;;;;12.00;9.25;;;;;21.01;44.13;101910.41;5061727;28;45311;-73
2021/10/23 09:07:43;;;;;;;;;9.50;8.00;;;;;21.05;44.16;101916.56;5064577;27;45294;-73
2021/10/23 09:10:09;;;;;;;;;9.50;7.50;;;;;21.08;43.93;101920.03;5044665;28;47414;-72
2021/10/23 09:12:36;;;;;;;;;13.25;9.25;;;;;21.09;44.02;101910.31;5027847;28;45766;-73
2021/10/23 09:15:01;;;;;;;;;11.00;9.50;;;;;21.11;44.13;101913.81;5044792;28;45201;-72
2021/10/23 09:17:27;;;;;;;;;10.00;9.00;;;;;21.11;44.40;101912.06;5061221;28;45278;-72
2021/10/23 09:19:53;;;;;;;;;6.25;6.25;;;;;21.10;44.03;101906.75;5044373;28;47366;-73
2021/10/23 09:22:32;;;;;;;;;10.50;9.25;;;;;21.10;44.51;101912.06;5043511;28;46180;-72
2021/10/23 09:25:14;;;;;;;;;14.75;9.75;;;;;21.12;44.19;101910.28;5061260;28;45532;-72
2021/10/23 09:28:02;;;;;;;;;10.75;8.75;;;;;21.12;43.79;101911.16;5061198;28;45308;-72
2021/10/23 09:30:33;;;;;;;;;10.25;9.75;;;;;21.11;44.01;101905.84;5062285;28;45528;-72
2021/10/23 09:33:00;;;;;;;;;7.75;7.00;;;;;21.10;43.69;101901.44;5062394;28;45180;-72
2021/10/23 09:35:26;;;;;;;;;9.00;8.00;;;;;21.13;43.82;101912.91;5060406;28;45364;-73
2021/10/23 09:37:54;;;;;;;;;10.75;8.75;;;;;21.12;44.14;101911.16;5094679;27;46032;-72
2021/10/23 09:40:20;;;;;;;;;9.50;8.25;;;;;21.13;44.06;101909.38;5077274;28;47307;-70
2021/10/23 09:42:45;;;;;;;;;10.50;8.25;;;;;21.14;44.26;101914.66;5094760;27;45228;-71
2021/10/23 09:45:11;;;;;;;;;10.75;8.50;;;;;21.15;44.18;101904.91;5077751;28;45280;-71
2021/10/23 09:47:41;;;;;;;;;9.75;7.25;;;;;21.15;43.93;101902.25;5060793;28;45275;-72
2021/10/23 09:50:12;;;;;;;;;7.50;7.50;;;;;21.16;44.34;101906.66;5078964;28;45428;-71
2021/10/23 09:53:03;;;;;;;;;10.50;10.50;;;;;21.20;43.88;101896.84;5093815;27;45378;-73
2021/10/23 09:55:36;;;;;;;;;8.25;8.25;;;;;21.20;43.68;101899.50;5062209;28;45303;-72
2021/10/23 09:58:20;;;;;;;;;8.50;6.75;;;;;21.23;43.84;101900.34;5077389;27;45346;-72
2021/10/23 10:00:47;;;;;;;;;8.25;7.00;;;;;21.23;43.92;101897.69;5061765;28;45408;-72
2021/10/23 10:03:12;;;;;;;;;12.25;9.25;;;;;21.30;43.98;101901.16;5094126;27;45464;-72
2021/10/23 10:05:38;;;;;;;;;13.75;8.25;;;;;21.30;43.65;101895.84;5060944;28;45350;-72
2021/10/23 10:08:10;;;;;;;;;13.00;9.25;;;;;21.33;43.57;101899.31;5060547;28;45399;-71
2021/10/23 10:10:44;;;;;;;;;7.25;7.25;;;;;21.36;43.55;101907.22;5061965;28;45399;-74
2021/10/23 10:13:11;;;;;;;;;10.00;7.50;;;;;21.37;43.68;101902.78;5077232;28;45382;-72
2021/10/23 10:15:37;;;;;;;;;9.00;7.75;;;;;21.34;43.28;101900.19;5043724;28;45425;-72
2021/10/23 10:18:04;;;;;;;;;10.00;8.00;;;;;21.37;43.46;101898.38;5056994;28;46006;-72
2021/10/23 10:20:30;;;;;;;;;7.75;6.75;;;;;21.39;43.25;101906.31;5053355;28;47329;-71
2021/10/23 10:22:58;;;;;;;;;9.25;8.00;;;;;21.36;43.77;101899.25;5043399;28;45284;-73
2021/10/23 10:25:27;;;;;;;;;8.50;8.00;;;;;21.47;43.47;101909.72;5060224;28;45377;-72
2021/10/23 10:27:53;;;;;;;;;10.00;7.50;;;;;21.49;43.11;101913.22;5056781;28;45351;-73
2021/10/23 10:30:32;;;;;;;;;8.50;8.50;;;;;21.54;43.18;101906.03;5055337;28;46729;-71
2021/10/23 10:33:34;;;;;;;;;14.25;11.75;;;;;21.56;43.31;101898.94;5059449;28;45251;-72
2021/10/23 10:44:23;;;;;;;;;9.50;7.50;;;;;21.67;42.96;101902.25;5061002;28;45354;-72
2021/10/23 10:47:00;;;;;;;;;7.50;7.50;;;;;21.65;43.05;101905.88;5046755;28;45426;-72
2021/10/23 10:49:43;;;;;;;;;8.75;8.25;;;;;21.57;42.43;101900.69;5060089;28;45449;-72
2021/10/23 10:52:40;;;;;;;;;7.75;6.75;;;;;21.52;42.93;101897.22;5043010;28;47337;-72
2021/10/23 10:55:16;;;;;;;;;8.00;7.50;;;;;21.48;42.94;101899.97;5056023;28;46537;-70
2021/10/23 10:58:00;;;;;;;;;12.50;7.25;;;;;21.51;43.18;101899.91;5068753;28;45261;-73
2021/10/23 11:01:10;;;;;;;;;9.00;9.00;;;;;21.53;42.68;101892.78;5093656;27;45193;-73
2021/10/23 11:03:38;;;;;;;;;9.00;7.25;;;;;21.56;42.83;101890.97;5056013;28;47223;-72
2021/10/23 11:06:29;;;;;;;;;11.75;9.50;;;;;21.62;42.71;101888.19;5054545;28;45355;-71
2021/10/23 11:09:16;;;;;;;;;15.75;11.00;;;;;21.70;42.83;101883.59;5056227;28;45569;-72
2021/10/23 11:11:55;;;;;;;;;7.50;6.50;;;;;21.76;43.11;101874.66;5047527;28;45371;-73
2021/10/23 11:17:15;;;;;;;;;8.50;8.50;;;;;21.84;42.69;101880.69;5060705;28;45379;-73
2021/10/23 11:19:53;;;;;;;;;8.50;5.50;;;;;21.87;42.06;101874.44;5059274;28;45223;-72
2021/10/23 11:22:35;;;;;;;;;11.75;8.75;;;;;21.84;42.15;101866.53;5025781;28;46098;-71
2021/10/23 11:25:11;;;;;;;;;7.25;7.25;;;;;21.87;41.87;101872.66;5055912;28;46146;-71
2021/10/23 11:27:42;;;;;;;;;8.25;8.00;;;;;21.84;41.86;101875.38;5039025;28;45323;-73
2021/10/23 11:30:11;;;;;;;;;8.00;7.25;;;;;21.83;41.81;101870.97;5005998;28;45426;-72